createdAt,value
2023-05-06T00:03:32.755Z,100.00
2023-05-06T00:08:35.291Z,100.00
2023-05-06T00:13:38.043Z,100.00
2023-05-06T00:18:41.052Z,100.00
2023-05-06T00:23:42.665Z,100.00
2023-05-06T00:28:44.289Z,100.00
2023-05-06T00:33:45.899Z,100.00
2023-05-06T00:38:47.521Z,100.00
2023-05-06T00:43:49.218Z,100.00
2023-05-06T00:48:51.324Z,100.00
2023-05-06T00:53:53.139Z,100.00
2023-05-06T00:58:55.254Z,100.00
2023-05-06T01:03:58.762Z,100.00
2023-05-06T01:09:34.886Z,100.00
2023-05-06T01:14:41.667Z,100.00
2023-05-06T01:19:46.737Z,100.00
2023-05-06T01:24:48.726Z,100.00
2023-05-06T01:29:50.642Z,100.00
2023-05-06T01:35:04.182Z,100.00
2023-05-06T01:40:07.678Z,100.00
2023-05-06T01:45:10.962Z,100.00
2023-05-06T01:50:13.093Z,100.00
2023-05-06T01:55:14.713Z,100.00
2023-05-06T02:00:16.624Z,100.00
2023-05-06T02:05:18.419Z,100.00
2023-05-06T02:10:24.590Z,100.00
2023-05-06T02:15:32.860Z,100.00
2023-05-06T02:20:35.393Z,100.00
2023-05-06T02:25:37.056Z,100.00
2023-05-06T02:30:38.631Z,100.00
2023-05-06T02:35:40.963Z,100.00
2023-05-06T02:40:42.696Z,100.00
2023-05-06T02:45:44.512Z,100.00
2023-05-06T02:50:46.529Z,100.00
2023-05-06T02:55:48.173Z,100.00
2023-05-06T03:00:49.804Z,100.00
2023-05-06T03:05:51.403Z,100.00
2023-05-06T03:10:54.270Z,100.00
2023-05-06T03:15:56.475Z,100.00
2023-05-06T03:20:58.732Z,100.00
2023-05-06T03:26:01.444Z,100.00
2023-05-06T03:31:04.200Z,100.00
2023-05-06T03:36:08.800Z,100.00
2023-05-06T03:41:12.157Z,100.00
2023-05-06T03:46:14.512Z,100.00
2023-05-06T03:51:17.152Z,100.00
2023-05-06T03:56:19.073Z,100.00
2023-05-06T04:01:23.861Z,100.00
2023-05-06T04:06:26.799Z,100.00
2023-05-06T04:11:29.828Z,100.00
2023-05-06T04:16:33.111Z,100.00
2023-05-06T04:21:34.965Z,100.00
2023-05-06T04:26:40.985Z,100.00
2023-05-06T04:31:43.485Z,100.00
2023-05-06T04:36:47.870Z,100.00
2023-05-06T04:42:09.741Z,100.00
2023-05-06T04:47:18.590Z,100.00
2023-05-06T04:52:23.860Z,100.00
2023-05-06T04:57:26.031Z,100.00
2023-05-06T05:02:29.783Z,100.00
2023-05-06T05:07:31.534Z,100.00
2023-05-06T05:12:33.445Z,100.00
2023-05-06T05:17:36.595Z,100.00
2023-05-06T05:22:38.409Z,100.00
2023-05-06T05:27:42.265Z,100.00
2023-05-06T05:32:44.194Z,100.00
2023-05-06T05:37:46.961Z,100.00
2023-05-06T05:42:52.133Z,100.00
2023-05-06T05:48:01.110Z,100.00
2023-05-06T05:53:03.153Z,100.00
2023-05-06T05:58:05.800Z,100.00
2023-05-06T06:03:09.930Z,100.00
2023-05-06T06:08:13.194Z,100.00
2023-05-06T06:13:16.211Z,100.00
2023-05-06T06:18:17.972Z,100.00
2023-05-06T06:23:19.778Z,100.00
2023-05-06T06:28:21.617Z,100.00
2023-05-06T06:33:28.695Z,100.00
2023-05-06T06:38:30.845Z,100.00
2023-05-06T06:43:38.396Z,100.00
2023-05-06T06:48:51.871Z,100.00
2023-05-06T06:53:56.287Z,100.00
2023-05-06T06:59:01.000Z,100.00
2023-05-06T07:04:07.350Z,100.00
2023-05-06T07:09:09.379Z,100.00
2023-05-06T07:14:11.965Z,100.00
2023-05-06T07:19:13.843Z,100.00
2023-05-06T07:24:15.680Z,100.00
2023-05-06T07:29:17.421Z,100.00
2023-05-06T07:34:19.780Z,100.00
2023-05-06T07:39:21.447Z,100.00
2023-05-06T07:44:23.044Z,100.00
2023-05-06T07:49:25.399Z,100.00
2023-05-06T07:54:27.095Z,100.00
2023-05-06T07:59:28.697Z,99.82
2023-05-06T08:04:30.346Z,100.00
2023-05-06T08:09:32.025Z,100.00
2023-05-06T08:14:33.653Z,100.00
2023-05-06T08:19:35.290Z,97.40
2023-05-06T08:24:36.946Z,96.71
2023-05-06T08:29:39.014Z,97.65
2023-05-06T08:34:40.946Z,96.74
2023-05-06T08:39:42.896Z,96.33
2023-05-06T08:44:44.616Z,96.69
2023-05-06T08:49:46.469Z,99.35
2023-05-06T08:54:51.493Z,95.78
2023-05-06T08:59:53.285Z,97.08
2023-05-06T09:04:56.673Z,100.00
2023-05-06T09:09:58.292Z,99.38
2023-05-06T09:14:59.854Z,95.73
2023-05-06T09:20:01.844Z,96.86
2023-05-06T09:25:03.738Z,95.02
2023-05-06T09:30:14.022Z,95.49
2023-05-06T09:35:15.653Z,96.42
2023-05-06T09:40:17.368Z,94.00
2023-05-06T09:45:19.027Z,96.49
2023-05-06T09:50:21.848Z,93.77
2023-05-06T09:55:26.840Z,93.54
2023-05-06T10:00:31.191Z,96.62
2023-05-06T10:05:34.011Z,95.64
2023-05-06T10:10:37.607Z,94.05
2023-05-06T10:15:40.089Z,94.90
2023-05-06T10:20:43.650Z,93.89
2023-05-06T10:25:47.854Z,92.67
2023-05-06T10:30:52.081Z,93.68
2023-05-06T10:36:14.468Z,91.22
2023-05-06T10:41:16.911Z,91.17
2023-05-06T10:46:18.619Z,86.66
2023-05-06T10:51:20.212Z,83.90
2023-05-06T10:56:22.161Z,84.66
2023-05-06T11:01:28.282Z,85.50
2023-05-06T11:06:43.181Z,86.29
2023-05-06T11:11:54.229Z,82.80
2023-05-06T11:16:58.237Z,81.77
2023-05-06T11:22:02.191Z,84.22
2023-05-06T11:27:03.905Z,79.64
2023-05-06T11:32:17.759Z,79.75
2023-05-06T11:37:26.155Z,79.57
2023-05-06T11:42:29.089Z,77.37
2023-05-06T11:47:30.927Z,77.62
2023-05-06T11:52:32.591Z,76.45
2023-05-06T11:57:34.437Z,76.14
2023-05-06T12:02:36.330Z,74.29
2023-05-06T12:07:38.533Z,74.14
2023-05-06T12:12:40.473Z,72.30
2023-05-06T12:17:42.254Z,72.88
2023-05-06T12:22:43.845Z,74.04
2023-05-06T12:27:45.582Z,75.21
2023-05-06T12:32:58.117Z,77.66
2023-05-06T12:38:09.493Z,79.10
2023-05-06T12:43:12.394Z,78.34
2023-05-06T12:48:16.999Z,76.42
2023-05-06T12:53:32.942Z,76.27
2023-05-06T12:58:37.564Z,72.18
2023-05-06T13:03:41.071Z,74.65
2023-05-06T13:08:43.749Z,73.95
2023-05-06T13:13:45.342Z,70.21
2023-05-06T13:18:46.956Z,70.67
2023-05-06T13:23:48.694Z,71.89
2023-05-06T13:28:50.405Z,73.16
2023-05-06T13:33:52.395Z,74.65
2023-05-06T13:38:54.404Z,74.37
2023-05-06T13:43:56.055Z,76.20
2023-05-06T13:48:57.753Z,77.98
2023-05-06T13:53:59.426Z,76.36
2023-05-06T13:59:01.036Z,75.93
2023-05-06T14:04:02.767Z,79.60
2023-05-06T14:09:04.901Z,80.63
2023-05-06T14:14:06.896Z,83.34
2023-05-06T14:19:09.175Z,84.80
2023-05-06T14:24:12.583Z,83.33
2023-05-06T14:29:14.289Z,84.73
2023-05-06T14:34:15.965Z,85.32
2023-05-06T14:39:17.584Z,86.09
2023-05-06T14:44:19.186Z,83.29
2023-05-06T14:49:21.211Z,81.22
2023-05-06T14:54:22.843Z,82.48
2023-05-06T14:59:24.450Z,82.17
2023-05-06T15:04:27.385Z,82.28
2023-05-06T15:09:29.120Z,84.49
2023-05-06T15:14:30.759Z,84.28
2023-05-06T15:19:33.815Z,85.93
2023-05-06T15:24:35.979Z,85.63
2023-05-06T15:29:39.348Z,85.59
2023-05-06T15:34:41.101Z,84.30
2023-05-06T15:39:42.881Z,82.80
2023-05-06T15:44:44.753Z,82.29
2023-05-06T15:49:54.109Z,77.04
2023-05-06T15:54:59.509Z,74.13
2023-05-06T16:00:02.140Z,76.90
2023-05-06T16:05:07.526Z,78.72
2023-05-06T16:10:09.453Z,82.27
2023-05-06T16:15:11.450Z,82.65
2023-05-06T16:20:13.756Z,82.27
2023-05-06T16:25:16.179Z,81.20
2023-05-06T16:30:17.906Z,81.68
2023-05-06T16:35:19.566Z,84.32
2023-05-06T16:40:21.823Z,81.82
2023-05-06T16:45:23.618Z,81.68
2023-05-06T16:50:25.312Z,84.04
2023-05-06T16:55:27.002Z,83.60
2023-05-06T17:00:29.442Z,83.81
2023-05-06T17:05:31.100Z,83.37
2023-05-06T17:10:32.809Z,82.84
2023-05-06T17:15:34.492Z,85.84
2023-05-06T17:20:51.450Z,85.32
2023-05-06T17:25:57.254Z,85.58
2023-05-06T17:30:58.989Z,86.01
2023-05-06T17:36:00.805Z,85.64
2023-05-06T17:41:02.452Z,86.95
2023-05-06T17:46:04.437Z,86.07
2023-05-06T17:51:06.124Z,85.59
2023-05-06T17:56:07.841Z,87.62
2023-05-06T18:01:09.543Z,88.20
2023-05-06T18:06:12.392Z,85.93
2023-05-06T18:11:14.115Z,86.82
2023-05-06T18:16:15.900Z,88.42
2023-05-06T18:21:17.568Z,89.48
2023-05-06T18:26:35.302Z,89.78
2023-05-06T18:31:40.992Z,89.65
2023-05-06T18:36:42.701Z,90.06
2023-05-06T18:41:44.492Z,91.98
2023-05-06T18:46:46.228Z,90.21
2023-05-06T18:51:48.109Z,91.98
2023-05-06T18:56:51.763Z,92.71
2023-05-06T19:01:53.430Z,92.89
2023-05-06T19:06:55.120Z,92.01
2023-05-06T19:11:56.715Z,92.99
2023-05-06T19:16:58.530Z,91.94
2023-05-06T19:22:01.743Z,91.97
2023-05-06T19:27:03.495Z,92.11
2023-05-06T19:32:05.628Z,91.61
2023-05-06T19:37:07.260Z,94.91
2023-05-06T19:42:08.988Z,94.59
2023-05-06T19:47:12.377Z,95.97
2023-05-06T19:52:27.395Z,97.86
2023-05-06T19:57:33.596Z,95.94
2023-05-06T20:02:37.083Z,95.04
2023-05-06T20:07:38.860Z,94.02
2023-05-06T20:12:41.128Z,94.04
2023-05-06T20:17:42.905Z,93.57
2023-05-06T20:22:44.735Z,94.14
2023-05-06T20:27:46.427Z,94.24
2023-05-06T20:32:49.559Z,95.82
2023-05-06T20:37:54.631Z,97.49
2023-05-06T20:42:56.310Z,99.89
2023-05-06T20:47:58.217Z,100.00
2023-05-06T20:53:00.690Z,100.00
2023-05-06T20:58:02.319Z,100.00
2023-05-06T21:03:04.186Z,100.00
2023-05-06T21:08:05.928Z,100.00
2023-05-06T21:13:08.031Z,100.00
2023-05-06T21:18:10.134Z,100.00
2023-05-06T21:23:11.924Z,100.00
2023-05-06T21:28:14.012Z,100.00
2023-05-06T21:33:15.669Z,100.00
2023-05-06T21:38:17.270Z,100.00
2023-05-06T21:43:19.038Z,100.00
2023-05-06T21:48:20.777Z,100.00
2023-05-06T21:53:22.379Z,100.00
2023-05-06T21:58:23.995Z,100.00
2023-05-06T22:03:27.537Z,100.00
2023-05-06T22:08:29.932Z,100.00
2023-05-06T22:13:31.608Z,100.00
2023-05-06T22:18:33.272Z,100.00
2023-05-06T22:23:35.032Z,100.00
2023-05-06T22:28:36.661Z,100.00
2023-05-06T22:33:38.426Z,100.00
2023-05-06T22:38:40.102Z,100.00
2023-05-06T22:43:41.736Z,100.00
2023-05-06T22:48:46.550Z,100.00
2023-05-06T22:53:48.181Z,100.00
2023-05-06T22:58:49.793Z,100.00
2023-05-06T23:03:51.559Z,100.00
2023-05-06T23:08:53.236Z,100.00
2023-05-06T23:13:54.807Z,100.00
2023-05-06T23:18:56.925Z,100.00
2023-05-06T23:23:58.650Z,100.00
2023-05-06T23:29:00.531Z,100.00
2023-05-06T23:34:02.428Z,100.00
2023-05-06T23:39:04.178Z,100.00
2023-05-06T23:44:06.474Z,100.00
2023-05-06T23:49:08.145Z,100.00
2023-05-06T23:54:09.896Z,100.00
2023-05-06T23:59:11.578Z,100.00
